Terminal Aerodrome Forecast
Issued by NWS Northern Indiana

Home | Current Version | Previous Version | Text Only | Print | Product List | Glossary On
Versions: 1 2 3 4 5 6 7 8 9 10 11 12 13 14 15 16 17 18
000
FTUS43 KIWX 221120
TAFFWA
TAF
KFWA 221120Z 2212/2312 23010G20KT 4SM SHRA BKN020 OVC050
     FM221700 24013G22KT P6SM VCSH SCT020 OVC050
     FM222100 29012G21KT P6SM SCT020
     FM230000 30008KT P6SM FEW250
     FM230600 28003KT P6SM SKC=

USA.gov is the U.S. government's official web portal to all federal, state and local government web resources and services.